createdAt,value
2018-12-24T00:01:56.680Z,10.00
2018-12-24T00:04:25.214Z,10.00
2018-12-24T00:06:53.732Z,10.00
2018-12-24T00:09:22.260Z,10.00
2018-12-24T00:11:50.782Z,10.00
2018-12-24T00:14:19.309Z,10.00
2018-12-24T00:16:47.818Z,10.00
2018-12-24T00:19:16.413Z,10.00
2018-12-24T00:21:44.932Z,10.00
2018-12-24T00:24:13.449Z,9.90
2018-12-24T00:26:41.973Z,10.00
2018-12-24T00:29:10.497Z,10.00
2018-12-24T00:31:39.024Z,10.00
2018-12-24T00:34:07.549Z,10.00
2018-12-24T00:36:36.069Z,10.00
2018-12-24T00:39:06.261Z,10.00
2018-12-24T00:41:34.773Z,10.00
2018-12-24T00:44:03.304Z,10.10
2018-12-24T00:46:32.157Z,10.10
2018-12-24T00:49:00.945Z,10.10
2018-12-24T00:51:29.537Z,10.10
2018-12-24T00:53:58.319Z,10.10
2018-12-24T00:56:26.834Z,10.10
2018-12-24T00:58:55.361Z,10.10
2018-12-24T01:01:23.939Z,10.10
2018-12-24T01:03:52.469Z,10.10
2018-12-24T01:06:20.988Z,10.10
2018-12-24T01:08:49.513Z,10.00
2018-12-24T01:11:18.032Z,10.00
2018-12-24T01:13:46.554Z,10.00
2018-12-24T01:16:15.082Z,10.00
2018-12-24T01:18:43.593Z,10.00
2018-12-24T01:21:12.437Z,10.00
2018-12-24T01:23:40.960Z,10.00
2018-12-24T01:26:09.485Z,10.00
2018-12-24T01:28:38.005Z,10.00
2018-12-24T01:31:06.533Z,10.00
2018-12-24T01:33:35.125Z,10.00
2018-12-24T01:36:03.639Z,10.00
2018-12-24T01:38:32.152Z,10.00
2018-12-24T01:41:00.693Z,10.00
2018-12-24T01:43:29.231Z,10.00
2018-12-24T01:45:58.057Z,10.00
2018-12-24T01:48:26.825Z,10.00
2018-12-24T01:50:55.347Z,10.00
2018-12-24T01:55:52.133Z,10.00
2018-12-24T01:58:20.986Z,10.00
2018-12-24T02:00:49.512Z,10.00
2018-12-24T02:03:18.033Z,9.90
2018-12-24T02:05:46.553Z,9.90
2018-12-24T02:08:15.073Z,9.90
2018-12-24T02:10:43.596Z,9.90
2018-12-24T02:13:12.106Z,9.90
2018-12-24T02:15:40.625Z,9.90
2018-12-24T02:18:09.159Z,9.90
2018-12-24T02:20:37.678Z,9.90
2018-12-24T02:23:06.190Z,9.90
2018-12-24T02:25:34.710Z,9.90
2018-12-24T02:28:03.225Z,10.00
2018-12-24T02:30:31.758Z,10.00
2018-12-24T02:33:00.328Z,10.00
2018-12-24T02:35:28.909Z,10.00
2018-12-24T02:37:57.417Z,10.00
2018-12-24T02:40:25.926Z,10.00
2018-12-24T02:42:54.456Z,10.10
2018-12-24T02:45:22.965Z,10.40
2018-12-24T02:52:48.157Z,7.00
2018-12-24T02:55:16.673Z,6.80
2018-12-24T02:57:45.201Z,6.70
2018-12-24T03:02:41.913Z,6.80
2018-12-24T03:05:10.424Z,6.80
2018-12-24T03:07:38.976Z,7.00
2018-12-24T03:10:07.494Z,7.00
2018-12-24T03:12:36.017Z,7.20
2018-12-24T03:15:05.080Z,7.10
2018-12-24T03:17:33.607Z,7.20
2018-12-24T03:20:02.118Z,7.20
2018-12-24T03:24:58.834Z,7.10
2018-12-24T03:29:55.591Z,7.10
2018-12-24T03:32:24.116Z,7.00
2018-12-24T03:34:52.637Z,7.00
2018-12-24T03:37:21.162Z,7.00
2018-12-24T03:39:49.664Z,7.00
2018-12-24T03:42:18.193Z,7.00
2018-12-24T03:44:46.714Z,6.90
2018-12-24T03:47:15.243Z,6.80
2018-12-24T03:59:36.548Z,6.00
2018-12-24T04:02:05.060Z,5.70
2018-12-24T04:04:34.053Z,5.60
2018-12-24T04:07:02.576Z,5.40
2018-12-24T04:11:59.363Z,5.30
2018-12-24T04:14:27.918Z,5.20
2018-12-24T04:16:56.437Z,5.10
2018-12-24T04:19:24.959Z,5.00
2018-12-24T04:21:53.482Z,5.00
2018-12-24T04:29:18.401Z,5.00
2018-12-24T04:34:15.117Z,5.00
2018-12-24T04:36:43.635Z,5.00
2018-12-24T04:39:12.231Z,5.00
2018-12-24T04:41:40.745Z,5.00
2018-12-24T04:56:30.913Z,4.80
2018-12-24T04:58:59.443Z,4.70
2018-12-24T05:01:27.949Z,4.70
2018-12-24T05:03:56.478Z,4.60
2018-12-24T05:08:53.503Z,4.40
2018-12-24T05:13:50.221Z,4.30
2018-12-24T05:18:46.929Z,4.30
2018-12-24T05:31:08.535Z,4.30
2018-12-24T05:33:37.056Z,4.30
2018-12-24T05:36:05.645Z,4.30
2018-12-24T05:38:34.166Z,4.30
2018-12-24T05:41:02.689Z,4.30
2018-12-24T05:43:31.201Z,4.30
2018-12-24T05:45:59.720Z,4.30
2018-12-24T05:48:28.233Z,4.30
2018-12-24T05:50:56.765Z,4.30
2018-12-24T06:00:51.657Z,4.30
2018-12-24T06:03:20.293Z,4.30
2018-12-24T06:05:48.875Z,4.30
2018-12-24T06:08:17.406Z,4.30
2018-12-24T06:10:45.925Z,4.30
2018-12-24T06:15:42.637Z,4.40
2018-12-24T06:30:32.138Z,4.30
2018-12-24T06:33:00.661Z,4.30
2018-12-24T06:35:29.269Z,4.30
2018-12-24T06:37:57.785Z,4.20
2018-12-24T06:40:26.326Z,4.20
2018-12-24T06:42:54.836Z,4.20
2018-12-24T06:50:20.081Z,4.20
2018-12-24T06:52:48.602Z,4.20
2018-12-24T06:57:45.617Z,4.20
2018-12-24T07:00:14.138Z,4.20
2018-12-24T07:02:42.653Z,4.20
2018-12-24T07:05:11.180Z,4.10
2018-12-24T07:07:39.705Z,4.20
2018-12-24T07:10:08.233Z,4.20
2018-12-24T07:12:36.750Z,4.10
2018-12-24T07:20:01.713Z,4.10
2018-12-24T07:24:58.425Z,4.10
2018-12-24T07:27:26.953Z,4.10
2018-12-24T07:29:55.840Z,4.10
2018-12-24T07:32:24.430Z,4.00
2018-12-24T07:37:21.573Z,4.00
2018-12-24T07:39:50.086Z,4.00
2018-12-24T07:42:18.617Z,4.00
2018-12-24T07:59:36.983Z,4.00
2018-12-24T08:02:05.512Z,4.30
2018-12-24T08:04:34.033Z,4.40
2018-12-24T08:07:02.558Z,4.30
2018-12-24T08:09:31.417Z,4.30
2018-12-24T08:11:59.973Z,4.30
2018-12-24T08:14:33.029Z,4.40
2018-12-24T08:16:59.021Z,4.50
2018-12-24T08:29:22.449Z,4.50
2018-12-24T08:36:47.373Z,4.00
2018-12-24T08:39:15.982Z,4.00
2018-12-24T08:44:12.689Z,4.00
2018-12-24T08:46:41.205Z,4.00
2018-12-24T08:59:02.845Z,4.10
2018-12-24T09:01:31.357Z,4.10
2018-12-24T09:03:59.887Z,4.10
2018-12-24T09:06:28.397Z,4.20
2018-12-24T09:08:56.934Z,4.20
2018-12-24T09:11:25.453Z,4.30
2018-12-24T09:16:22.161Z,4.30
2018-12-24T09:18:50.697Z,4.30
2018-12-24T09:21:19.215Z,4.30
2018-12-24T09:31:12.456Z,4.30
2018-12-24T09:33:40.981Z,4.20
2018-12-24T09:36:09.496Z,4.20
2018-12-24T09:38:38.278Z,4.30
2018-12-24T09:43:34.994Z,4.30
2018-12-24T09:46:03.515Z,4.30
2018-12-24T09:48:32.029Z,4.30
2018-12-24T09:51:00.553Z,4.40
2018-12-24T09:53:29.069Z,4.40
2018-12-24T09:55:57.860Z,4.40
2018-12-24T10:00:54.869Z,4.40
2018-12-24T10:03:23.454Z,4.40
2018-12-24T10:05:52.402Z,4.40
2018-12-24T10:08:20.913Z,4.40
2018-12-24T10:10:49.441Z,4.50
2018-12-24T10:13:17.962Z,4.40
2018-12-24T10:15:46.493Z,4.50
2018-12-24T10:20:43.209Z,4.60
2018-12-24T10:23:12.073Z,4.60
2018-12-24T10:25:40.597Z,4.60
2018-12-24T10:28:09.122Z,4.60
2018-12-24T10:30:37.650Z,4.60
2018-12-24T10:33:06.169Z,4.70
2018-12-24T10:35:34.704Z,4.70
2018-12-24T10:40:31.781Z,4.70
2018-12-24T10:43:00.305Z,4.70
2018-12-24T10:45:28.828Z,4.80
2018-12-24T11:02:46.519Z,4.80
2018-12-24T11:05:15.525Z,4.90
2018-12-24T11:07:44.035Z,5.00
2018-12-24T11:10:12.546Z,5.00
2018-12-24T11:15:10.393Z,5.00
2018-12-24T11:18:20.385Z,5.00
2018-12-24T11:23:16.885Z,5.00
2018-12-24T11:28:13.748Z,5.00
2018-12-24T11:30:42.152Z,5.00
2018-12-24T11:33:10.581Z,5.00
2018-12-24T11:35:38.993Z,5.00
2018-12-24T11:38:07.413Z,5.00
2018-12-24T11:40:35.821Z,5.10
2018-12-24T11:43:04.243Z,5.10
2018-12-24T11:48:02.472Z,5.20
2018-12-24T11:50:30.885Z,5.20
2018-12-24T11:52:59.315Z,5.10
2018-12-24T11:55:27.728Z,5.00
2018-12-24T12:00:24.241Z,5.10
2018-12-24T12:02:52.657Z,5.10
2018-12-24T12:05:21.085Z,5.10
2018-12-24T12:07:49.497Z,5.10
2018-12-24T12:12:46.018Z,5.10
2018-12-24T12:15:14.428Z,5.10
2018-12-24T12:20:10.923Z,5.30
2018-12-24T12:22:39.505Z,5.20
2018-12-24T12:30:07.935Z,5.00
2018-12-24T12:32:36.346Z,4.90
2018-12-24T12:37:33.313Z,4.70
2018-12-24T12:40:01.721Z,4.70
2018-12-24T12:42:30.144Z,4.70
2018-12-24T12:44:58.942Z,4.70
2018-12-24T12:49:55.808Z,4.60
2018-12-24T12:54:52.312Z,4.70
2018-12-24T12:57:20.753Z,4.80
2018-12-24T12:59:49.224Z,4.80
2018-12-24T13:02:19.069Z,4.90
2018-12-24T13:04:47.634Z,4.90
2018-12-24T13:07:16.049Z,5.00
2018-12-24T13:09:44.465Z,5.00
2018-12-24T13:12:12.897Z,5.00
2018-12-24T13:17:09.737Z,5.10
2018-12-24T13:19:38.160Z,5.10
2018-12-24T13:22:06.572Z,5.10
2018-12-24T13:24:34.994Z,5.10
2018-12-24T13:27:03.404Z,5.10
2018-12-24T13:29:51.184Z,5.00
2018-12-24T13:32:19.654Z,5.00
2018-12-24T13:34:48.399Z,5.00
2018-12-24T13:37:16.809Z,5.00
2018-12-24T13:39:45.228Z,5.00
2018-12-24T13:42:13.946Z,5.00
2018-12-24T13:44:42.360Z,4.90
2018-12-24T13:47:10.781Z,4.90
2018-12-24T13:52:07.293Z,4.80
2018-12-24T13:54:35.725Z,4.80
2018-12-24T13:57:04.150Z,4.80
2018-12-24T13:59:32.567Z,4.80
2018-12-24T14:02:00.961Z,4.70
2018-12-24T14:04:29.385Z,4.80
2018-12-24T14:06:57.793Z,4.80
2018-12-24T14:09:26.226Z,4.80
2018-12-24T14:11:54.902Z,4.90
2018-12-24T14:29:11.841Z,4.90
2018-12-24T14:31:40.600Z,4.80
2018-12-24T14:34:09.016Z,4.80
2018-12-24T14:36:37.429Z,4.80
2018-12-24T14:39:07.118Z,4.70
2018-12-24T14:41:35.857Z,4.50
2018-12-24T14:44:04.278Z,4.40
2018-12-24T14:51:29.169Z,4.20
2018-12-24T15:01:22.152Z,4.10
2018-12-24T15:03:50.573Z,4.10
2018-12-24T15:06:18.981Z,4.10
2018-12-24T15:08:47.409Z,4.20
2018-12-24T15:11:15.813Z,4.10
2018-12-24T15:13:44.220Z,4.00
2018-12-24T15:18:40.720Z,4.00
2018-12-24T15:21:09.145Z,4.00
2018-12-24T15:23:37.553Z,4.00
2018-12-24T15:26:06.001Z,4.00
2018-12-24T15:28:34.418Z,4.00
2018-12-24T15:31:02.841Z,4.00
2018-12-24T15:33:31.257Z,4.00
2018-12-24T15:35:59.678Z,4.00
2018-12-24T15:38:28.085Z,4.00
2018-12-24T15:40:56.504Z,4.00
2018-12-24T15:43:24.926Z,4.00
2018-12-24T15:45:53.344Z,4.00
2018-12-24T15:48:21.757Z,4.00
2018-12-24T15:50:50.213Z,4.00
2018-12-24T15:53:18.669Z,4.00
2018-12-24T15:55:47.426Z,3.90
2018-12-24T15:58:15.839Z,3.90
2018-12-24T16:00:44.256Z,3.90
2018-12-24T16:03:12.677Z,4.00
2018-12-24T16:05:41.097Z,3.90
2018-12-24T16:08:09.519Z,3.80
2018-12-24T16:10:37.952Z,3.70
2018-12-24T16:13:07.621Z,3.70
2018-12-24T16:15:36.301Z,3.50
2018-12-24T16:18:04.785Z,3.50
2018-12-24T16:20:33.213Z,3.40
2018-12-24T16:23:01.661Z,3.40
2018-12-24T16:25:30.137Z,3.30
2018-12-24T16:27:58.545Z,3.30
2018-12-24T16:30:27.155Z,3.20
2018-12-24T16:32:55.596Z,3.20
2018-12-24T16:35:24.013Z,3.20
2018-12-24T16:37:52.746Z,3.20
2018-12-24T16:40:21.153Z,3.20
2018-12-24T16:42:49.568Z,3.10
2018-12-24T16:45:17.993Z,3.20
2018-12-24T16:47:46.401Z,3.20
2018-12-24T16:50:14.837Z,3.20
2018-12-24T16:52:43.311Z,3.20
2018-12-24T16:55:11.720Z,3.30
2018-12-24T16:57:41.287Z,3.30
2018-12-24T17:00:10.222Z,3.40
2018-12-24T17:02:38.641Z,3.40
2018-12-24T17:05:07.056Z,3.40
2018-12-24T17:07:35.476Z,3.40
2018-12-24T17:10:23.223Z,3.40
2018-12-24T17:12:51.653Z,3.50
2018-12-24T17:15:20.065Z,3.50
2018-12-24T17:17:48.494Z,3.50
2018-12-24T17:20:16.899Z,3.60
2018-12-24T17:27:41.498Z,3.70
2018-12-24T17:30:09.910Z,3.60
2018-12-24T17:32:38.332Z,3.60
2018-12-24T17:37:35.173Z,3.60
2018-12-24T17:42:32.645Z,3.60
2018-12-24T17:57:21.845Z,3.50
2018-12-24T17:59:50.257Z,3.40
2018-12-24T18:02:18.681Z,3.50
2018-12-24T18:04:47.094Z,3.50
2018-12-24T18:07:15.509Z,3.50
2018-12-24T18:09:43.930Z,3.50
2018-12-24T18:12:12.345Z,3.50
2018-12-24T18:14:40.760Z,3.50
2018-12-24T18:29:29.957Z,3.40
2018-12-24T18:31:58.375Z,3.30
2018-12-24T18:34:26.795Z,3.20
2018-12-24T18:36:55.214Z,3.10
2018-12-24T18:39:23.978Z,3.10
2018-12-24T18:41:52.389Z,3.00
2018-12-24T18:44:20.815Z,2.90
2018-12-24T18:51:45.421Z,2.80
2018-12-24T18:54:13.848Z,2.80
2018-12-24T18:56:42.265Z,2.80
2018-12-24T18:59:10.714Z,2.80
2018-12-24T19:01:39.133Z,2.80
2018-12-24T19:04:07.569Z,2.80
2018-12-24T19:06:36.253Z,2.80
2018-12-24T19:09:06.473Z,2.70
2018-12-24T19:11:34.884Z,2.70
2018-12-24T19:14:03.423Z,2.70
2018-12-24T19:16:31.838Z,2.70
2018-12-24T19:19:00.262Z,2.60
2018-12-24T19:21:28.696Z,2.60
2018-12-24T19:23:57.113Z,2.50
2018-12-24T19:26:25.531Z,2.50
2018-12-24T19:28:54.233Z,2.50
2018-12-24T19:31:22.625Z,2.50
2018-12-24T19:33:51.044Z,2.50
2018-12-24T19:36:19.762Z,2.40
2018-12-24T19:38:48.448Z,2.30
2018-12-24T19:41:16.872Z,2.30
2018-12-24T19:43:45.542Z,2.20
2018-12-24T19:46:13.969Z,2.20
2018-12-24T19:48:42.399Z,2.10
2018-12-24T19:51:11.161Z,2.00
2018-12-24T19:53:39.577Z,2.00
2018-12-24T19:56:08.004Z,1.90
2018-12-24T19:58:36.434Z,1.90
2018-12-24T20:01:04.856Z,1.90
2018-12-24T20:03:33.280Z,1.90
2018-12-24T20:06:01.701Z,1.90
2018-12-24T20:08:30.122Z,2.00
2018-12-24T20:10:58.551Z,2.00
2018-12-24T20:13:27.209Z,2.00
2018-12-24T20:18:23.717Z,2.00
2018-12-24T20:20:52.144Z,2.00
2018-12-24T20:23:20.568Z,1.80
2018-12-24T20:25:48.984Z,1.80
2018-12-24T20:28:17.401Z,1.90
2018-12-24T20:30:45.837Z,1.90
2018-12-24T20:33:14.252Z,1.90
2018-12-24T20:35:42.683Z,1.90
2018-12-24T20:38:11.101Z,1.80
2018-12-24T20:40:39.523Z,1.80
2018-12-24T20:43:07.945Z,1.80
2018-12-24T20:45:36.629Z,1.80
2018-12-24T20:48:06.763Z,1.70
2018-12-24T20:55:31.828Z,1.50
2018-12-24T20:58:00.259Z,1.50
2018-12-24T21:00:28.673Z,1.60
2018-12-24T21:02:57.105Z,1.60
2018-12-24T21:05:25.521Z,1.60
2018-12-24T21:07:53.969Z,1.60
2018-12-24T21:10:22.665Z,1.70
2018-12-24T21:12:51.093Z,1.70
2018-12-24T21:15:19.506Z,1.90
2018-12-24T21:17:47.937Z,1.90
2018-12-24T21:20:16.357Z,2.00
2018-12-24T21:22:44.784Z,2.00
2018-12-24T21:25:13.196Z,1.90
2018-12-24T21:27:41.703Z,1.90
2018-12-24T21:30:10.126Z,1.80
2018-12-24T21:32:38.545Z,1.80
2018-12-24T21:35:06.965Z,1.70
2018-12-24T21:37:35.398Z,1.60
2018-12-24T21:40:04.052Z,1.60
2018-12-24T21:42:32.476Z,1.60
2018-12-24T21:45:00.899Z,1.50
2018-12-24T21:49:57.410Z,1.30
2018-12-24T21:52:25.832Z,1.10
2018-12-24T21:54:54.245Z,0.90
2018-12-24T21:57:22.670Z,0.80
2018-12-24T22:02:19.540Z,0.60
2018-12-24T22:04:47.961Z,0.60
2018-12-24T22:07:16.398Z,0.60
2018-12-24T22:12:12.921Z,0.60
2018-12-24T22:17:09.461Z,0.90
2018-12-24T22:19:37.884Z,0.90
2018-12-24T22:22:06.313Z,0.90
2018-12-24T22:24:34.740Z,1.10
2018-12-24T22:29:31.251Z,1.10
2018-12-24T22:31:59.681Z,1.00
2018-12-24T22:34:28.101Z,0.80
2018-12-24T22:36:56.546Z,0.70
2018-12-24T22:39:24.962Z,0.70
2018-12-24T22:41:53.394Z,0.70
2018-12-24T22:44:21.809Z,0.70
2018-12-24T22:49:18.329Z,0.70
2018-12-24T22:51:47.113Z,0.70
2018-12-24T22:54:15.564Z,0.70
2018-12-24T22:59:12.074Z,0.60
2018-12-24T23:01:40.485Z,0.50
2018-12-24T23:04:08.908Z,0.30
2018-12-24T23:06:37.592Z,0.20
2018-12-24T23:09:07.949Z,0.10
2018-12-24T23:11:36.373Z,0.20
2018-12-24T23:14:05.085Z,0.20
2018-12-24T23:16:33.503Z,0.20
2018-12-24T23:19:01.925Z,0.20
2018-12-24T23:21:30.347Z,0.20
2018-12-24T23:23:58.773Z,0.30
2018-12-24T23:26:27.189Z,0.20
2018-12-24T23:28:55.654Z,0.20
2018-12-24T23:31:24.065Z,0.20
2018-12-24T23:33:52.489Z,0.10
2018-12-24T23:38:49.003Z,0.20
2018-12-24T23:43:45.515Z,0.10
2018-12-24T23:46:13.935Z,0.00
2018-12-24T23:48:42.374Z,-0.10
2018-12-24T23:53:38.896Z,-0.20
2018-12-24T23:56:07.329Z,-0.40
